Terminal Aerodrome Forecast
Issued by NWS Jackson, MS

Home | Current Version | Previous Version | Text Only | Print | Product List | Glossary On
Versions: 1 2 3 4 5 6 7 8 9 10 11 12
000
FTUS44 KJAN 181749
TAFGWO
TAF
KGWO 181749Z 1818/1918 19017G25KT P6SM SCT025 OVC040
     FM182100 24023G35KT P6SM VCSH BKN030 OVC040
     FM190000 30025G39KT P6SM OVC025
     FM190300 34016G26KT P6SM BKN035
     FM190800 33010KT P6SM SKC=

USA.gov is the U.S. government's official web portal to all federal, state and local government web resources and services.